sensor_id;sensor_type;location;lat;lon;timestamp;P1;durP1;ratioP1;P2;durP2;ratioP2
23496;SDS011;11925;48.122;11.560;2023-11-19T00:00:26;1.20;;;0.80;;
23496;SDS011;11925;48.122;11.560;2023-11-19T00:02:55;1.05;;;0.90;;
23496;SDS011;11925;48.122;11.560;2023-11-19T00:05:24;2.40;;;0.90;;
23496;SDS011;11925;48.122;11.560;2023-11-19T00:07:54;2.13;;;0.80;;
23496;SDS011;11925;48.122;11.560;2023-11-19T00:10:22;1.00;;;0.70;;
23496;SDS011;11925;48.122;11.560;2023-11-19T00:12:51;1.33;;;0.70;;
23496;SDS011;11925;48.122;11.560;2023-11-19T00:15:20;2.42;;;0.82;;
23496;SDS011;11925;48.122;11.560;2023-11-19T00:17:50;1.73;;;1.00;;
23496;SDS011;11925;48.122;11.560;2023-11-19T00:20:21;1.60;;;0.90;;
23496;SDS011;11925;48.122;11.560;2023-11-19T00:22:49;1.70;;;0.93;;
23496;SDS011;11925;48.122;11.560;2023-11-19T00:25:19;2.65;;;0.98;;
23496;SDS011;11925;48.122;11.560;2023-11-19T00:27:49;1.25;;;0.70;;
23496;SDS011;11925;48.122;11.560;2023-11-19T00:30:18;1.35;;;0.80;;
23496;SDS011;11925;48.122;11.560;2023-11-19T00:32:46;1.40;;;0.68;;
23496;SDS011;11925;48.122;11.560;2023-11-19T00:35:15;1.48;;;0.80;;
23496;SDS011;11925;48.122;11.560;2023-11-19T00:37:45;1.83;;;0.90;;
23496;SDS011;11925;48.122;11.560;2023-11-19T00:40:14;1.40;;;0.70;;
23496;SDS011;11925;48.122;11.560;2023-11-19T00:42:45;1.52;;;1.17;;
23496;SDS011;11925;48.122;11.560;2023-11-19T00:45:14;2.55;;;0.80;;
23496;SDS011;11925;48.122;11.560;2023-11-19T00:47:43;1.17;;;0.70;;
23496;SDS011;11925;48.122;11.560;2023-11-19T00:50:11;1.73;;;0.70;;
23496;SDS011;11925;48.122;11.560;2023-11-19T00:52:40;1.58;;;0.80;;
23496;SDS011;11925;48.122;11.560;2023-11-19T00:55:10;1.02;;;0.93;;
23496;SDS011;11925;48.122;11.560;2023-11-19T00:57:39;1.90;;;0.90;;
23496;SDS011;11925;48.122;11.560;2023-11-19T01:00:08;1.60;;;0.70;;
23496;SDS011;11925;48.122;11.560;2023-11-19T01:02:45;0.93;;;0.68;;
23496;SDS011;11925;48.122;11.560;2023-11-19T01:05:18;1.38;;;0.70;;
23496;SDS011;11925;48.122;11.560;2023-11-19T01:07:50;2.47;;;1.05;;
23496;SDS011;11925;48.122;11.560;2023-11-19T01:12:52;1.42;;;0.82;;
23496;SDS011;11925;48.122;11.560;2023-11-19T01:15:21;1.35;;;0.80;;
23496;SDS011;11925;48.122;11.560;2023-11-19T01:17:50;1.33;;;0.90;;
23496;SDS011;11925;48.122;11.560;2023-11-19T01:20:20;3.08;;;1.02;;
23496;SDS011;11925;48.122;11.560;2023-11-19T01:22:48;2.20;;;1.00;;
23496;SDS011;11925;48.122;11.560;2023-11-19T01:25:17;1.58;;;0.90;;
23496;SDS011;11925;48.122;11.560;2023-11-19T01:27:46;1.40;;;0.80;;
23496;SDS011;11925;48.122;11.560;2023-11-19T01:30:18;0.93;;;0.70;;
23496;SDS011;11925;48.122;11.560;2023-11-19T01:32:48;1.45;;;0.90;;
23496;SDS011;11925;48.122;11.560;2023-11-19T01:35:17;1.45;;;0.77;;
23496;SDS011;11925;48.122;11.560;2023-11-19T01:37:45;1.98;;;0.70;;
23496;SDS011;11925;48.122;11.560;2023-11-19T01:40:14;2.72;;;1.08;;
23496;SDS011;11925;48.122;11.560;2023-11-19T01:42:44;2.17;;;0.63;;
23496;SDS011;11925;48.122;11.560;2023-11-19T01:45:17;1.25;;;0.88;;
23496;SDS011;11925;48.122;11.560;2023-11-19T01:47:52;1.95;;;0.50;;
23496;SDS011;11925;48.122;11.560;2023-11-19T01:50:21;1.80;;;0.63;;
23496;SDS011;11925;48.122;11.560;2023-11-19T01:52:51;0.80;;;0.50;;
23496;SDS011;11925;48.122;11.560;2023-11-19T01:55:20;0.95;;;0.50;;
23496;SDS011;11925;48.122;11.560;2023-11-19T01:57:49;0.82;;;0.45;;
23496;SDS011;11925;48.122;11.560;2023-11-19T02:00:19;1.33;;;0.60;;
23496;SDS011;11925;48.122;11.560;2023-11-19T02:02:48;1.13;;;0.60;;
23496;SDS011;11925;48.122;11.560;2023-11-19T02:05:20;1.30;;;0.70;;
23496;SDS011;11925;48.122;11.560;2023-11-19T02:07:49;1.15;;;0.55;;
23496;SDS011;11925;48.122;11.560;2023-11-19T02:10:18;1.95;;;0.50;;
23496;SDS011;11925;48.122;11.560;2023-11-19T02:12:47;1.70;;;0.73;;
23496;SDS011;11925;48.122;11.560;2023-11-19T02:15:16;1.58;;;0.50;;
23496;SDS011;11925;48.122;11.560;2023-11-19T02:17:45;1.15;;;0.40;;
23496;SDS011;11925;48.122;11.560;2023-11-19T02:20:14;1.25;;;0.52;;
23496;SDS011;11925;48.122;11.560;2023-11-19T02:22:44;0.85;;;0.52;;
23496;SDS011;11925;48.122;11.560;2023-11-19T02:25:15;0.90;;;0.53;;
23496;SDS011;11925;48.122;11.560;2023-11-19T02:30:15;0.68;;;0.50;;
23496;SDS011;11925;48.122;11.560;2023-11-19T02:32:43;1.60;;;0.60;;
23496;SDS011;11925;48.122;11.560;2023-11-19T02:35:12;0.82;;;0.50;;
23496;SDS011;11925;48.122;11.560;2023-11-19T02:37:41;1.67;;;0.63;;
23496;SDS011;11925;48.122;11.560;2023-11-19T02:40:11;1.63;;;0.60;;
23496;SDS011;11925;48.122;11.560;2023-11-19T02:42:40;0.90;;;0.50;;
23496;SDS011;11925;48.122;11.560;2023-11-19T02:45:09;0.90;;;0.60;;
23496;SDS011;11925;48.122;11.560;2023-11-19T02:47:42;2.22;;;0.60;;
23496;SDS011;11925;48.122;11.560;2023-11-19T02:50:11;0.77;;;0.40;;
23496;SDS011;11925;48.122;11.560;2023-11-19T02:52:41;1.23;;;0.60;;
23496;SDS011;11925;48.122;11.560;2023-11-19T02:55:10;1.23;;;0.40;;
23496;SDS011;11925;48.122;11.560;2023-11-19T02:57:39;0.80;;;0.50;;
23496;SDS011;11925;48.122;11.560;2023-11-19T03:00:13;2.15;;;0.77;;
23496;SDS011;11925;48.122;11.560;2023-11-19T03:02:44;1.95;;;0.60;;
23496;SDS011;11925;48.122;11.560;2023-11-19T03:05:14;1.75;;;0.57;;
23496;SDS011;11925;48.122;11.560;2023-11-19T03:07:43;1.85;;;0.40;;
23496;SDS011;11925;48.122;11.560;2023-11-19T03:10:12;1.30;;;0.43;;
23496;SDS011;11925;48.122;11.560;2023-11-19T03:12:41;0.85;;;0.45;;
23496;SDS011;11925;48.122;11.560;2023-11-19T03:15:11;1.83;;;0.60;;
23496;SDS011;11925;48.122;11.560;2023-11-19T03:17:41;0.70;;;0.50;;
23496;SDS011;11925;48.122;11.560;2023-11-19T03:20:11;1.10;;;0.40;;
23496;SDS011;11925;48.122;11.560;2023-11-19T03:22:41;0.93;;;0.50;;
23496;SDS011;11925;48.122;11.560;2023-11-19T03:25:10;0.82;;;0.45;;
23496;SDS011;11925;48.122;11.560;2023-11-19T03:27:39;1.35;;;0.60;;
23496;SDS011;11925;48.122;11.560;2023-11-19T03:30:09;1.58;;;0.60;;
23496;SDS011;11925;48.122;11.560;2023-11-19T03:32:38;1.50;;;0.50;;
23496;SDS011;11925;48.122;11.560;2023-11-19T03:35:07;1.63;;;0.52;;
23496;SDS011;11925;48.122;11.560;2023-11-19T03:37:38;2.03;;;0.50;;
23496;SDS011;11925;48.122;11.560;2023-11-19T03:40:07;1.50;;;0.50;;
23496;SDS011;11925;48.122;11.560;2023-11-19T03:42:37;0.90;;;0.50;;
23496;SDS011;11925;48.122;11.560;2023-11-19T03:45:06;1.00;;;0.40;;
23496;SDS011;11925;48.122;11.560;2023-11-19T03:47:35;0.70;;;0.40;;
23496;SDS011;11925;48.122;11.560;2023-11-19T03:50:03;1.17;;;0.50;;
23496;SDS011;11925;48.122;11.560;2023-11-19T03:52:33;0.77;;;0.45;;
23496;SDS011;11925;48.122;11.560;2023-11-19T03:55:11;1.10;;;0.55;;
23496;SDS011;11925;48.122;11.560;2023-11-19T03:57:40;2.65;;;0.50;;
23496;SDS011;11925;48.122;11.560;2023-11-19T04:00:08;1.40;;;0.60;;
23496;SDS011;11925;48.122;11.560;2023-11-19T04:02:40;1.05;;;0.50;;
23496;SDS011;11925;48.122;11.560;2023-11-19T04:05:09;1.30;;;0.52;;
23496;SDS011;11925;48.122;11.560;2023-11-19T04:07:38;0.90;;;0.40;;
23496;SDS011;11925;48.122;11.560;2023-11-19T04:10:06;0.75;;;0.52;;
23496;SDS011;11925;48.122;11.560;2023-11-19T04:12:36;2.05;;;0.65;;
23496;SDS011;11925;48.122;11.560;2023-11-19T04:15:06;0.70;;;0.40;;
23496;SDS011;11925;48.122;11.560;2023-11-19T04:17:35;1.40;;;0.50;;
23496;SDS011;11925;48.122;11.560;2023-11-19T04:20:04;1.30;;;0.52;;
23496;SDS011;11925;48.122;11.560;2023-11-19T04:22:37;0.60;;;0.47;;
23496;SDS011;11925;48.122;11.560;2023-11-19T04:25:06;2.60;;;0.68;;
23496;SDS011;11925;48.122;11.560;2023-11-19T04:27:34;1.80;;;0.70;;
23496;SDS011;11925;48.122;11.560;2023-11-19T04:30:05;0.80;;;0.40;;
23496;SDS011;11925;48.122;11.560;2023-11-19T04:32:38;1.13;;;0.60;;
23496;SDS011;11925;48.122;11.560;2023-11-19T04:35:07;1.67;;;0.47;;
23496;SDS011;11925;48.122;11.560;2023-11-19T04:37:37;1.10;;;0.60;;
23496;SDS011;11925;48.122;11.560;2023-11-19T04:40:06;1.55;;;0.70;;
23496;SDS011;11925;48.122;11.560;2023-11-19T04:42:36;1.27;;;0.60;;
23496;SDS011;11925;48.122;11.560;2023-11-19T04:45:08;2.15;;;0.73;;
23496;SDS011;11925;48.122;11.560;2023-11-19T04:47:37;0.93;;;0.60;;
23496;SDS011;11925;48.122;11.560;2023-11-19T04:50:06;1.63;;;0.50;;
23496;SDS011;11925;48.122;11.560;2023-11-19T04:52:37;0.77;;;0.50;;
23496;SDS011;11925;48.122;11.560;2023-11-19T04:55:08;0.57;;;0.30;;
23496;SDS011;11925;48.122;11.560;2023-11-19T04:57:39;0.77;;;0.50;;
23496;SDS011;11925;48.122;11.560;2023-11-19T05:00:10;0.57;;;0.30;;
23496;SDS011;11925;48.122;11.560;2023-11-19T05:02:41;2.45;;;0.40;;
23496;SDS011;11925;48.122;11.560;2023-11-19T05:05:10;0.95;;;0.45;;
23496;SDS011;11925;48.122;11.560;2023-11-19T05:07:39;0.50;;;0.20;;
23496;SDS011;11925;48.122;11.560;2023-11-19T05:10:08;1.65;;;0.35;;
23496;SDS011;11925;48.122;11.560;2023-11-19T05:12:37;0.30;;;0.20;;
23496;SDS011;11925;48.122;11.560;2023-11-19T05:15:09;0.55;;;0.30;;
23496;SDS011;11925;48.122;11.560;2023-11-19T05:17:40;0.45;;;0.30;;
23496;SDS011;11925;48.122;11.560;2023-11-19T05:20:09;0.60;;;0.30;;
23496;SDS011;11925;48.122;11.560;2023-11-19T05:22:40;0.57;;;0.20;;
23496;SDS011;11925;48.122;11.560;2023-11-19T05:25:09;0.65;;;0.30;;
23496;SDS011;11925;48.122;11.560;2023-11-19T05:27:38;0.82;;;0.30;;
23496;SDS011;11925;48.122;11.560;2023-11-19T05:30:07;0.95;;;0.65;;
23496;SDS011;11925;48.122;11.560;2023-11-19T05:32:38;1.25;;;0.25;;
23496;SDS011;11925;48.122;11.560;2023-11-19T05:35:07;0.60;;;0.30;;
23496;SDS011;11925;48.122;11.560;2023-11-19T05:37:36;0.82;;;0.30;;
23496;SDS011;11925;48.122;11.560;2023-11-19T05:40:05;0.32;;;0.20;;
23496;SDS011;11925;48.122;11.560;2023-11-19T05:42:42;0.85;;;0.30;;
23496;SDS011;11925;48.122;11.560;2023-11-19T05:45:11;0.75;;;0.30;;
23496;SDS011;11925;48.122;11.560;2023-11-19T05:47:42;0.55;;;0.30;;
23496;SDS011;11925;48.122;11.560;2023-11-19T05:50:10;0.87;;;0.40;;
23496;SDS011;11925;48.122;11.560;2023-11-19T05:52:39;0.55;;;0.30;;
23496;SDS011;11925;48.122;11.560;2023-11-19T05:55:08;0.60;;;0.30;;
23496;SDS011;11925;48.122;11.560;2023-11-19T05:57:37;1.83;;;0.30;;
23496;SDS011;11925;48.122;11.560;2023-11-19T06:00:10;0.45;;;0.30;;
23496;SDS011;11925;48.122;11.560;2023-11-19T06:02:40;1.08;;;0.30;;
23496;SDS011;11925;48.122;11.560;2023-11-19T06:05:10;1.05;;;0.30;;
23496;SDS011;11925;48.122;11.560;2023-11-19T06:07:39;0.60;;;0.20;;
23496;SDS011;11925;48.122;11.560;2023-11-19T06:10:08;0.60;;;0.30;;
23496;SDS011;11925;48.122;11.560;2023-11-19T06:12:37;0.73;;;0.20;;
23496;SDS011;11925;48.122;11.560;2023-11-19T06:15:08;1.30;;;0.30;;
23496;SDS011;11925;48.122;11.560;2023-11-19T06:17:38;0.40;;;0.20;;
23496;SDS011;11925;48.122;11.560;2023-11-19T06:20:07;0.43;;;0.30;;
23496;SDS011;11925;48.122;11.560;2023-11-19T06:22:40;0.60;;;0.32;;
23496;SDS011;11925;48.122;11.560;2023-11-19T06:25:10;0.52;;;0.30;;
23496;SDS011;11925;48.122;11.560;2023-11-19T06:27:41;0.30;;;0.22;;
23496;SDS011;11925;48.122;11.560;2023-11-19T06:30:10;0.40;;;0.25;;
23496;SDS011;11925;48.122;11.560;2023-11-19T06:32:39;0.25;;;0.20;;
23496;SDS011;11925;48.122;11.560;2023-11-19T06:35:08;0.45;;;0.22;;
23496;SDS011;11925;48.122;11.560;2023-11-19T06:37:39;0.43;;;0.10;;
23496;SDS011;11925;48.122;11.560;2023-11-19T06:40:08;0.43;;;0.25;;
23496;SDS011;11925;48.122;11.560;2023-11-19T06:42:38;0.68;;;0.25;;
23496;SDS011;11925;48.122;11.560;2023-11-19T06:45:07;0.45;;;0.28;;
23496;SDS011;11925;48.122;11.560;2023-11-19T06:47:37;0.98;;;0.40;;
23496;SDS011;11925;48.122;11.560;2023-11-19T06:50:06;1.08;;;0.20;;
23496;SDS011;11925;48.122;11.560;2023-11-19T06:52:35;0.40;;;0.20;;
23496;SDS011;11925;48.122;11.560;2023-11-19T06:55:06;0.25;;;0.20;;
23496;SDS011;11925;48.122;11.560;2023-11-19T06:57:35;0.40;;;0.20;;
23496;SDS011;11925;48.122;11.560;2023-11-19T07:00:04;0.30;;;0.15;;
23496;SDS011;11925;48.122;11.560;2023-11-19T07:02:34;1.10;;;0.30;;
23496;SDS011;11925;48.122;11.560;2023-11-19T07:05:03;0.20;;;0.20;;
23496;SDS011;11925;48.122;11.560;2023-11-19T07:07:32;0.45;;;0.20;;
23496;SDS011;11925;48.122;11.560;2023-11-19T07:10:02;0.38;;;0.30;;
23496;SDS011;11925;48.122;11.560;2023-11-19T07:12:33;0.40;;;0.20;;
23496;SDS011;11925;48.122;11.560;2023-11-19T07:15:03;0.70;;;0.25;;
23496;SDS011;11925;48.122;11.560;2023-11-19T07:17:32;0.50;;;0.20;;
23496;SDS011;11925;48.122;11.560;2023-11-19T07:20:01;0.75;;;0.30;;
23496;SDS011;11925;48.122;11.560;2023-11-19T07:22:31;1.17;;;0.30;;
23496;SDS011;11925;48.122;11.560;2023-11-19T07:24:59;0.55;;;0.20;;
23496;SDS011;11925;48.122;11.560;2023-11-19T07:27:28;0.10;;;0.10;;
23496;SDS011;11925;48.122;11.560;2023-11-19T07:29:57;0.38;;;0.20;;
23496;SDS011;11925;48.122;11.560;2023-11-19T07:32:26;0.30;;;0.10;;
23496;SDS011;11925;48.122;11.560;2023-11-19T07:34:54;0.28;;;0.10;;
23496;SDS011;11925;48.122;11.560;2023-11-19T07:37:23;0.30;;;0.10;;
23496;SDS011;11925;48.122;11.560;2023-11-19T07:39:51;0.17;;;0.10;;
23496;SDS011;11925;48.122;11.560;2023-11-19T07:42:19;0.35;;;0.20;;
23496;SDS011;11925;48.122;11.560;2023-11-19T07:44:48;0.45;;;0.20;;
23496;SDS011;11925;48.122;11.560;2023-11-19T07:47:18;1.42;;;0.10;;
23496;SDS011;11925;48.122;11.560;2023-11-19T07:49:46;0.60;;;0.13;;
23496;SDS011;11925;48.122;11.560;2023-11-19T07:52:14;0.38;;;0.10;;
23496;SDS011;11925;48.122;11.560;2023-11-19T07:54:45;0.38;;;0.20;;
23496;SDS011;11925;48.122;11.560;2023-11-19T07:57:14;0.30;;;0.10;;
23496;SDS011;11925;48.122;11.560;2023-11-19T07:59:42;0.30;;;0.10;;
23496;SDS011;11925;48.122;11.560;2023-11-19T08:02:11;1.23;;;0.40;;
23496;SDS011;11925;48.122;11.560;2023-11-19T08:04:41;0.20;;;0.10;;
23496;SDS011;11925;48.122;11.560;2023-11-19T08:07:12;0.20;;;0.20;;
23496;SDS011;11925;48.122;11.560;2023-11-19T08:09:40;0.35;;;0.20;;
23496;SDS011;11925;48.122;11.560;2023-11-19T08:12:09;0.30;;;0.20;;
23496;SDS011;11925;48.122;11.560;2023-11-19T08:14:37;0.52;;;0.20;;
23496;SDS011;11925;48.122;11.560;2023-11-19T08:17:05;0.30;;;0.20;;
23496;SDS011;11925;48.122;11.560;2023-11-19T08:19:34;0.30;;;0.25;;
23496;SDS011;11925;48.122;11.560;2023-11-19T08:22:04;0.95;;;0.30;;
23496;SDS011;11925;48.122;11.560;2023-11-19T08:24:32;1.90;;;0.25;;
23496;SDS011;11925;48.122;11.560;2023-11-19T08:27:00;0.60;;;0.30;;
23496;SDS011;11925;48.122;11.560;2023-11-19T08:29:29;0.20;;;0.20;;
23496;SDS011;11925;48.122;11.560;2023-11-19T08:31:58;0.30;;;0.20;;
23496;SDS011;11925;48.122;11.560;2023-11-19T08:34:29;0.30;;;0.25;;
23496;SDS011;11925;48.122;11.560;2023-11-19T08:36:57;0.10;;;0.10;;
23496;SDS011;11925;48.122;11.560;2023-11-19T08:39:27;0.20;;;0.20;;
23496;SDS011;11925;48.122;11.560;2023-11-19T08:44:25;1.02;;;0.20;;
23496;SDS011;11925;48.122;11.560;2023-11-19T08:46:53;0.50;;;0.20;;
23496;SDS011;11925;48.122;11.560;2023-11-19T08:49:22;0.57;;;0.25;;
23496;SDS011;11925;48.122;11.560;2023-11-19T08:51:50;0.47;;;0.28;;
23496;SDS011;11925;48.122;11.560;2023-11-19T08:54:18;1.10;;;0.30;;
23496;SDS011;11925;48.122;11.560;2023-11-19T08:56:50;1.65;;;0.30;;
23496;SDS011;11925;48.122;11.560;2023-11-19T08:59:19;0.75;;;0.20;;
23496;SDS011;11925;48.122;11.560;2023-11-19T09:01:47;1.27;;;0.20;;
23496;SDS011;11925;48.122;11.560;2023-11-19T09:04:15;0.25;;;0.20;;
23496;SDS011;11925;48.122;11.560;2023-11-19T09:06:44;0.45;;;0.30;;
23496;SDS011;11925;48.122;11.560;2023-11-19T09:09:12;0.40;;;0.20;;
23496;SDS011;11925;48.122;11.560;2023-11-19T09:11:41;0.47;;;0.20;;
23496;SDS011;11925;48.122;11.560;2023-11-19T09:14:10;0.60;;;0.30;;
23496;SDS011;11925;48.122;11.560;2023-11-19T09:16:39;1.10;;;0.43;;
23496;SDS011;11925;48.122;11.560;2023-11-19T09:19:08;1.10;;;0.60;;
23496;SDS011;11925;48.122;11.560;2023-11-19T09:21:36;3.13;;;1.15;;
23496;SDS011;11925;48.122;11.560;2023-11-19T09:24:06;1.75;;;0.80;;
23496;SDS011;11925;48.122;11.560;2023-11-19T09:26:34;0.90;;;0.60;;
23496;SDS011;11925;48.122;11.560;2023-11-19T09:29:06;1.55;;;0.80;;
23496;SDS011;11925;48.122;11.560;2023-11-19T09:31:37;2.05;;;0.70;;
23496;SDS011;11925;48.122;11.560;2023-11-19T09:34:05;1.27;;;0.50;;
23496;SDS011;11925;48.122;11.560;2023-11-19T09:36:34;1.60;;;0.80;;
23496;SDS011;11925;48.122;11.560;2023-11-19T09:39:02;1.30;;;0.52;;
23496;SDS011;11925;48.122;11.560;2023-11-19T09:41:31;0.90;;;0.50;;
23496;SDS011;11925;48.122;11.560;2023-11-19T09:44:01;0.88;;;0.57;;
23496;SDS011;11925;48.122;11.560;2023-11-19T09:46:29;0.90;;;0.57;;
23496;SDS011;11925;48.122;11.560;2023-11-19T09:48:59;0.70;;;0.40;;
23496;SDS011;11925;48.122;11.560;2023-11-19T09:51:30;0.90;;;0.50;;
23496;SDS011;11925;48.122;11.560;2023-11-19T09:53:58;0.57;;;0.40;;
23496;SDS011;11925;48.122;11.560;2023-11-19T09:56:27;0.40;;;0.30;;
23496;SDS011;11925;48.122;11.560;2023-11-19T09:58:57;1.00;;;0.40;;
23496;SDS011;11925;48.122;11.560;2023-11-19T10:01:26;1.38;;;0.38;;
23496;SDS011;11925;48.122;11.560;2023-11-19T10:03:55;0.50;;;0.40;;
23496;SDS011;11925;48.122;11.560;2023-11-19T10:06:25;0.60;;;0.40;;
23496;SDS011;11925;48.122;11.560;2023-11-19T10:08:54;1.30;;;0.57;;
23496;SDS011;11925;48.122;11.560;2023-11-19T10:11:23;0.45;;;0.38;;
23496;SDS011;11925;48.122;11.560;2023-11-19T10:13:52;0.82;;;0.30;;
23496;SDS011;11925;48.122;11.560;2023-11-19T10:16:22;0.68;;;0.30;;
23496;SDS011;11925;48.122;11.560;2023-11-19T10:18:57;0.95;;;0.35;;
23496;SDS011;11925;48.122;11.560;2023-11-19T10:21:26;0.30;;;0.30;;
23496;SDS011;11925;48.122;11.560;2023-11-19T10:23:56;0.77;;;0.43;;
23496;SDS011;11925;48.122;11.560;2023-11-19T10:28:55;0.68;;;0.30;;
23496;SDS011;11925;48.122;11.560;2023-11-19T10:31:24;1.15;;;0.50;;
23496;SDS011;11925;48.122;11.560;2023-11-19T10:33:53;1.05;;;0.60;;
23496;SDS011;11925;48.122;11.560;2023-11-19T10:36:22;1.15;;;0.40;;
23496;SDS011;11925;48.122;11.560;2023-11-19T10:38:53;1.27;;;0.43;;
23496;SDS011;11925;48.122;11.560;2023-11-19T10:41:28;0.40;;;0.40;;
23496;SDS011;11925;48.122;11.560;2023-11-19T10:43:57;1.30;;;0.52;;
23496;SDS011;11925;48.122;11.560;2023-11-19T10:46:35;1.42;;;0.50;;
23496;SDS011;11925;48.122;11.560;2023-11-19T10:49:06;1.75;;;0.52;;
23496;SDS011;11925;48.122;11.560;2023-11-19T10:51:34;0.70;;;0.40;;
23496;SDS011;11925;48.122;11.560;2023-11-19T10:54:05;1.00;;;0.40;;
23496;SDS011;11925;48.122;11.560;2023-11-19T10:56:34;0.60;;;0.40;;
23496;SDS011;11925;48.122;11.560;2023-11-19T10:59:02;0.70;;;0.40;;
23496;SDS011;11925;48.122;11.560;2023-11-19T11:01:50;0.98;;;0.40;;
23496;SDS011;11925;48.122;11.560;2023-11-19T11:04:22;0.73;;;0.30;;
23496;SDS011;11925;48.122;11.560;2023-11-19T11:06:53;0.60;;;0.30;;
23496;SDS011;11925;48.122;11.560;2023-11-19T11:09:23;0.60;;;0.35;;
23496;SDS011;11925;48.122;11.560;2023-11-19T11:11:54;1.95;;;0.30;;
23496;SDS011;11925;48.122;11.560;2023-11-19T11:14:24;0.60;;;0.22;;
23496;SDS011;11925;48.122;11.560;2023-11-19T11:16:54;0.70;;;0.30;;
23496;SDS011;11925;48.122;11.560;2023-11-19T11:19:25;1.50;;;0.30;;
23496;SDS011;11925;48.122;11.560;2023-11-19T11:21:54;0.40;;;0.20;;
23496;SDS011;11925;48.122;11.560;2023-11-19T11:24:37;0.50;;;0.28;;
23496;SDS011;11925;48.122;11.560;2023-11-19T11:27:32;0.40;;;0.30;;
23496;SDS011;11925;48.122;11.560;2023-11-19T11:30:19;0.90;;;0.32;;
23496;SDS011;11925;48.122;11.560;2023-11-19T11:32:59;1.40;;;0.30;;
23496;SDS011;11925;48.122;11.560;2023-11-19T11:35:41;0.80;;;0.40;;
23496;SDS011;11925;48.122;11.560;2023-11-19T11:38:17;0.85;;;0.22;;
23496;SDS011;11925;48.122;11.560;2023-11-19T11:43:48;0.35;;;0.20;;
23496;SDS011;11925;48.122;11.560;2023-11-19T11:49:27;0.80;;;0.30;;
23496;SDS011;11925;48.122;11.560;2023-11-19T11:51:58;0.20;;;0.20;;
23496;SDS011;11925;48.122;11.560;2023-11-19T11:54:28;0.85;;;0.32;;
23496;SDS011;11925;48.122;11.560;2023-11-19T11:57:06;0.20;;;0.20;;
23496;SDS011;11925;48.122;11.560;2023-11-19T12:02:11;0.20;;;0.20;;
23496;SDS011;11925;48.122;11.560;2023-11-19T12:04:41;0.75;;;0.20;;
23496;SDS011;11925;48.122;11.560;2023-11-19T12:07:12;0.50;;;0.30;;
23496;SDS011;11925;48.122;11.560;2023-11-19T12:09:41;0.52;;;0.40;;
23496;SDS011;11925;48.122;11.560;2023-11-19T12:12:18;0.50;;;0.30;;
23496;SDS011;11925;48.122;11.560;2023-11-19T12:15:05;0.60;;;0.22;;
23496;SDS011;11925;48.122;11.560;2023-11-19T12:17:43;0.35;;;0.20;;
23496;SDS011;11925;48.122;11.560;2023-11-19T12:20:18;0.40;;;0.30;;
23496;SDS011;11925;48.122;11.560;2023-11-19T12:22:50;0.22;;;0.20;;
23496;SDS011;11925;48.122;11.560;2023-11-19T12:25:19;0.85;;;0.30;;
23496;SDS011;11925;48.122;11.560;2023-11-19T12:27:50;1.20;;;0.35;;
23496;SDS011;11925;48.122;11.560;2023-11-19T12:30:21;0.30;;;0.20;;
23496;SDS011;11925;48.122;11.560;2023-11-19T12:32:50;0.35;;;0.30;;
23496;SDS011;11925;48.122;11.560;2023-11-19T12:35:23;0.43;;;0.28;;
23496;SDS011;11925;48.122;11.560;2023-11-19T12:37:51;0.50;;;0.20;;
23496;SDS011;11925;48.122;11.560;2023-11-19T12:40:20;0.80;;;0.40;;
23496;SDS011;11925;48.122;11.560;2023-11-19T12:42:52;2.33;;;0.40;;
23496;SDS011;11925;48.122;11.560;2023-11-19T12:45:22;0.80;;;0.30;;
23496;SDS011;11925;48.122;11.560;2023-11-19T12:48:04;0.32;;;0.30;;
23496;SDS011;11925;48.122;11.560;2023-11-19T12:53:19;1.15;;;0.75;;
23496;SDS011;11925;48.122;11.560;2023-11-19T12:55:47;0.32;;;0.20;;
23496;SDS011;11925;48.122;11.560;2023-11-19T12:58:30;0.40;;;0.25;;
23496;SDS011;11925;48.122;11.560;2023-11-19T13:00:59;1.15;;;0.30;;
23496;SDS011;11925;48.122;11.560;2023-11-19T13:03:29;0.90;;;0.30;;
23496;SDS011;11925;48.122;11.560;2023-11-19T13:06:02;0.90;;;0.40;;
23496;SDS011;11925;48.122;11.560;2023-11-19T13:08:38;0.68;;;0.32;;
23496;SDS011;11925;48.122;11.560;2023-11-19T13:11:07;0.73;;;0.30;;
23496;SDS011;11925;48.122;11.560;2023-11-19T13:16:26;1.42;;;0.32;;
23496;SDS011;11925;48.122;11.560;2023-11-19T13:18:56;0.73;;;0.40;;
23496;SDS011;11925;48.122;11.560;2023-11-19T13:21:25;0.95;;;0.40;;
23496;SDS011;11925;48.122;11.560;2023-11-19T13:23:54;0.70;;;0.30;;
23496;SDS011;11925;48.122;11.560;2023-11-19T13:26:22;0.63;;;0.47;;
23496;SDS011;11925;48.122;11.560;2023-11-19T13:28:51;0.90;;;0.38;;
23496;SDS011;11925;48.122;11.560;2023-11-19T13:31:21;0.50;;;0.30;;
23496;SDS011;11925;48.122;11.560;2023-11-19T13:33:49;0.98;;;0.40;;
23496;SDS011;11925;48.122;11.560;2023-11-19T13:36:18;0.55;;;0.43;;
23496;SDS011;11925;48.122;11.560;2023-11-19T13:38:46;0.90;;;0.43;;
23496;SDS011;11925;48.122;11.560;2023-11-19T13:41:14;0.73;;;0.40;;
23496;SDS011;11925;48.122;11.560;2023-11-19T13:43:43;1.58;;;0.80;;
23496;SDS011;11925;48.122;11.560;2023-11-19T13:46:12;0.57;;;0.40;;
23496;SDS011;11925;48.122;11.560;2023-11-19T13:48:41;0.55;;;0.40;;
23496;SDS011;11925;48.122;11.560;2023-11-19T13:51:10;0.70;;;0.32;;
23496;SDS011;11925;48.122;11.560;2023-11-19T13:53:38;0.82;;;0.43;;
23496;SDS011;11925;48.122;11.560;2023-11-19T13:56:09;1.00;;;0.50;;
23496;SDS011;11925;48.122;11.560;2023-11-19T13:58:38;2.33;;;0.47;;
23496;SDS011;11925;48.122;11.560;2023-11-19T14:01:07;1.45;;;0.45;;
23496;SDS011;11925;48.122;11.560;2023-11-19T14:03:35;0.95;;;0.60;;
23496;SDS011;11925;48.122;11.560;2023-11-19T14:06:05;0.80;;;0.52;;
23496;SDS011;11925;48.122;11.560;2023-11-19T14:08:35;0.77;;;0.50;;
23496;SDS011;11925;48.122;11.560;2023-11-19T14:11:04;1.05;;;0.40;;
23496;SDS011;11925;48.122;11.560;2023-11-19T14:13:33;1.48;;;0.60;;
23496;SDS011;11925;48.122;11.560;2023-11-19T14:16:02;0.50;;;0.40;;
23496;SDS011;11925;48.122;11.560;2023-11-19T14:18:33;0.90;;;0.50;;
23496;SDS011;11925;48.122;11.560;2023-11-19T14:21:02;0.95;;;0.50;;
23496;SDS011;11925;48.122;11.560;2023-11-19T14:23:32;0.93;;;0.50;;
23496;SDS011;11925;48.122;11.560;2023-11-19T14:26:01;0.73;;;0.50;;
23496;SDS011;11925;48.122;11.560;2023-11-19T14:28:29;1.55;;;0.50;;
23496;SDS011;11925;48.122;11.560;2023-11-19T14:30:57;0.60;;;0.40;;
23496;SDS011;11925;48.122;11.560;2023-11-19T14:33:26;1.08;;;0.45;;
23496;SDS011;11925;48.122;11.560;2023-11-19T14:35:54;0.60;;;0.40;;
23496;SDS011;11925;48.122;11.560;2023-11-19T14:38:23;1.35;;;0.57;;
23496;SDS011;11925;48.122;11.560;2023-11-19T14:40:52;1.10;;;0.40;;
23496;SDS011;11925;48.122;11.560;2023-11-19T14:43:21;0.80;;;0.40;;
23496;SDS011;11925;48.122;11.560;2023-11-19T14:45:50;1.23;;;0.60;;
23496;SDS011;11925;48.122;11.560;2023-11-19T14:48:21;1.33;;;0.60;;
23496;SDS011;11925;48.122;11.560;2023-11-19T14:50:49;0.57;;;0.40;;
23496;SDS011;11925;48.122;11.560;2023-11-19T14:53:18;0.68;;;0.40;;
23496;SDS011;11925;48.122;11.560;2023-11-19T14:55:46;0.82;;;0.47;;
23496;SDS011;11925;48.122;11.560;2023-11-19T14:58:16;0.80;;;0.40;;
23496;SDS011;11925;48.122;11.560;2023-11-19T15:00:44;0.70;;;0.60;;
23496;SDS011;11925;48.122;11.560;2023-11-19T15:03:13;0.68;;;0.47;;
23496;SDS011;11925;48.122;11.560;2023-11-19T15:05:43;2.00;;;0.50;;
23496;SDS011;11925;48.122;11.560;2023-11-19T15:08:12;1.00;;;0.43;;
23496;SDS011;11925;48.122;11.560;2023-11-19T15:10:42;1.00;;;0.50;;
23496;SDS011;11925;48.122;11.560;2023-11-19T15:13:11;0.65;;;0.50;;